Linden, Pennsylvania
Current Conditions -  °F | °C
As of 8:54 AM on Wednesday 26 Nov 2014 (Local Time) from KIPT Reporting Station
Overcast Overcast  
Wind Chill: 36°   Ceiling: 3500
Heat Index: 36°   Visibility: 10mi
Dew Point: 29°   Wind: 0mph
Humidity: 76%   Direction: NA
Pressure: 30.13"   Gusts: NA
Location:  41.23°N, 77.13°W
Report Text: KIPT 261354Z 00000KT 10SM BKN035 OVC060 02/M02 A3013 RMK AO2 SLP208 T00221017
Loading
Personal Weather Stations






























Interactive Weather Map New forecast layout! Learn more

10-Day Weather Forecast

Advertisements
Track Severe Weather on mobile